KHFD/HFD METAR and TAF weather

Enter ICAO airport designator
Station Type Date Time Source
KHFD METAR 2020/09/23 03:53 UTC NOAA

KHFD 230353Z 33004KT 10SM CLR 14/02 A2983 RMK AO2 SLP100 T01440022


Station Type Date Time Source
KHFD Decoded METAR 2020/09/23 03:53 UTC NOAA

HARTFORD-BRAINARD AIRPORT, CT, United States (KHFD) 41-44N 072-39W 4M
Sep 22, 2020 - 11:53 PM EDT / 2020.09.23 0353 UTC
Wind: from the NNW (330 degrees) at 5 MPH (4 KT):0
Visibility: 10 mile(s):0
Sky conditions: clear
Temperature: 57.9 F (14.4 C)
Dew Point: 36.0 F (2.2 C)
Relative Humidity: 43%
Pressure (altimeter): 29.83 in. Hg (1010 hPa)
ob: KHFD 230353Z 33004KT 10SM CLR 14/02 A2983 RMK AO2 SLP100 T01440022
cycle: 4

Station Type Date Time Source
KHFD TAF UTC NOAA

Error!

Example: see airport list